Time;durP1;ratioP1;P1;durP2;ratioP2;P2;SDS_P1;SDS_P2;PMS_P1;PMS_P2;Temp;Humidity;BMP_temperature;BMP_pressure;BME280_temperature;BME280_humidity;BME280_pressure;Samples;Min_cycle;Max_cycle;Signal;HPM_P1;HPM_P2
2023/10/31 00:02:11;;;;;;;16.13;12.02;;;11.90;95.40;;;;;;5072838;28;20085;-50
2023/10/31 00:04:40;;;;;;;13.27;11.98;;;11.90;95.30;;;;;;5093048;28;20036;-48
2023/10/31 00:07:10;;;;;;;12.40;11.20;;;11.90;95.40;;;;;;5093069;28;20460;-46
2023/10/31 00:09:39;;;;;;;13.40;12.07;;;11.90;95.40;;;;;;5073512;28;20157;-47
2023/10/31 00:12:07;;;;;;;15.63;11.65;;;12.00;95.40;;;;;;5093727;28;20054;-46
2023/10/31 00:14:33;;;;;;;15.23;13.63;;;11.90;95.40;;;;;;5076792;28;20103;-47
2023/10/31 00:17:03;;;;;;;14.30;12.85;;;11.90;95.40;;;;;;5084132;28;20107;-49
2023/10/31 00:19:32;;;;;;;13.60;12.30;;;11.90;95.50;;;;;;5092420;28;20089;-46
2023/10/31 00:21:58;;;;;;;16.42;13.60;;;11.90;95.50;;;;;;5092890;28;20039;-45
2023/10/31 00:24:25;;;;;;;15.45;12.95;;;11.90;95.40;;;;;;5097356;28;20108;-46
2023/10/31 00:26:55;;;;;;;14.77;12.88;;;11.90;95.50;;;;;;5112483;28;20026;-48
2023/10/31 00:29:24;;;;;;;14.10;11.98;;;11.90;95.50;;;;;;5114328;28;20057;-47
2023/10/31 00:31:51;;;;;;;14.33;12.90;;;11.90;95.50;;;;;;5105156;28;20032;-46
2023/10/31 00:34:17;;;;;;;15.07;13.50;;;11.90;95.50;;;;;;5096711;28;20274;-45
2023/10/31 00:36:44;;;;;;;13.88;12.38;;;11.90;95.50;;;;;;5099785;28;20026;-50
2023/10/31 00:39:11;;;;;;;14.73;13.18;;;11.90;95.50;;;;;;5117019;28;20468;-49
2023/10/31 00:41:39;;;;;;;14.45;12.95;;;11.90;95.50;;;;;;5115358;28;20036;-45
2023/10/31 00:44:07;;;;;;;14.38;12.90;;;12.00;95.60;;;;;;5108911;28;20096;-46
2023/10/31 00:46:35;;;;;;;12.85;11.55;;;11.90;95.60;;;;;;5096616;28;20114;-45
2023/10/31 00:49:04;;;;;;;15.13;13.38;;;12.00;95.60;;;;;;5102615;28;20518;-47
2023/10/31 00:51:32;;;;;;;15.05;13.45;;;12.00;95.60;;;;;;5115576;28;20031;-49
2023/10/31 00:53:59;;;;;;;15.63;12.82;;;12.00;95.60;;;;;;5096479;28;20054;-49
2023/10/31 00:56:26;;;;;;;15.38;13.40;;;12.00;95.50;;;;;;5095512;28;20048;-46
2023/10/31 00:58:53;;;;;;;16.48;14.73;;;12.00;95.60;;;;;;5111378;28;20039;-46
2023/10/31 01:01:22;;;;;;;14.70;13.18;;;12.00;95.60;;;;;;5096242;28;20028;-48
2023/10/31 01:03:49;;;;;;;15.13;13.63;;;12.00;95.60;;;;;;5105311;28;20020;-46
2023/10/31 01:06:16;;;;;;;13.55;12.15;;;12.00;95.60;;;;;;5098496;28;20536;-48
2023/10/31 01:08:43;;;;;;;16.60;14.50;;;12.00;95.60;;;;;;5096310;28;20020;-49
2023/10/31 01:11:10;;;;;;;15.23;13.63;;;12.00;95.60;;;;;;5094930;28;20035;-49
2023/10/31 01:13:39;;;;;;;16.65;14.93;;;11.90;95.60;;;;;;5113251;28;20028;-48
2023/10/31 01:16:07;;;;;;;16.35;14.32;;;12.00;95.60;;;;;;5114132;28;20094;-47
2023/10/31 01:18:36;;;;;;;16.58;14.88;;;12.00;95.70;;;;;;5107398;28;20032;-48
2023/10/31 01:21:01;;;;;;;17.02;15.32;;;12.00;95.70;;;;;;5095655;28;20032;-55
2023/10/31 01:23:29;;;;;;;15.25;13.75;;;12.00;95.70;;;;;;5116525;28;20034;-48
2023/10/31 01:25:57;;;;;;;17.63;15.82;;;12.00;95.70;;;;;;5115619;28;20063;-51
2023/10/31 01:28:23;;;;;;;15.35;13.82;;;12.00;95.70;;;;;;5102474;28;20027;-48
2023/10/31 01:30:51;;;;;;;15.88;14.23;;;12.00;95.70;;;;;;5102830;28;20024;-51
2023/10/31 01:33:19;;;;;;;16.63;14.75;;;12.00;95.60;;;;;;5105871;28;20115;-48
2023/10/31 01:35:47;;;;;;;19.00;14.98;;;12.00;95.60;;;;;;5112774;28;20020;-52
2023/10/31 01:38:18;;;;;;;20.13;16.10;;;11.90;95.70;;;;;;5108146;28;20035;-50
2023/10/31 01:40:49;;;;;;;16.15;14.30;;;11.90;95.70;;;;;;5086844;28;20393;-51
2023/10/31 01:43:39;;;;;;;17.75;15.63;;;11.90;95.70;;;;;;5087676;28;20031;-49
2023/10/31 01:46:05;;;;;;;18.13;15.55;;;12.00;95.70;;;;;;5108323;28;20070;-48
2023/10/31 01:48:34;;;;;;;16.65;14.95;;;11.90;95.70;;;;;;5106615;28;20329;-49
2023/10/31 01:51:07;;;;;;;17.33;15.55;;;11.90;95.70;;;;;;5109658;28;20031;-47
2023/10/31 01:53:34;;;;;;;15.35;13.70;;;11.90;95.70;;;;;;5094433;28;20032;-46
2023/10/31 01:56:02;;;;;;;17.75;15.85;;;11.90;95.70;;;;;;5113170;28;20039;-48
2023/10/31 01:58:39;;;;;;;16.20;14.57;;;11.90;95.70;;;;;;5096365;28;20031;-50
2023/10/31 02:01:07;;;;;;;15.95;14.10;;;11.90;95.70;;;;;;5081672;28;20039;-46
2023/10/31 02:03:37;;;;;;;16.80;15.10;;;11.90;95.70;;;;;;5095131;28;20107;-49
2023/10/31 02:06:05;;;;;;;16.45;14.75;;;11.90;95.70;;;;;;5110063;28;20040;-51
2023/10/31 02:08:32;;;;;;;18.20;16.15;;;11.90;95.80;;;;;;5096000;28;20024;-54
2023/10/31 02:10:59;;;;;;;18.63;16.73;;;11.90;95.80;;;;;;5106917;28;20050;-50
2023/10/31 02:13:25;;;;;;;16.17;14.43;;;11.90;95.80;;;;;;5101359;28;20036;-50
2023/10/31 02:15:50;;;;;;;17.17;15.40;;;12.00;95.80;;;;;;5088653;28;20034;-48
2023/10/31 02:18:23;;;;;;;20.27;16.83;;;12.00;95.80;;;;;;5111394;28;20103;-48
2023/10/31 02:20:50;;;;;;;19.67;16.42;;;12.00;95.80;;;;;;5115245;28;20042;-52
2023/10/31 02:23:17;;;;;;;19.42;16.33;;;12.00;95.80;;;;;;5114660;28;20342;-46
2023/10/31 02:25:45;;;;;;;18.17;16.27;;;11.90;95.80;;;;;;5111765;28;20048;-49
2023/10/31 02:28:10;;;;;;;18.65;16.65;;;11.90;95.80;;;;;;5093866;28;20028;-49
2023/10/31 02:30:37;;;;;;;18.17;16.23;;;11.90;95.70;;;;;;5102096;28;20024;-50
2023/10/31 02:33:04;;;;;;;18.73;16.73;;;11.90;95.80;;;;;;5106023;28;20023;-49
2023/10/31 02:35:32;;;;;;;18.67;16.65;;;11.90;95.80;;;;;;5114727;28;20027;-47
2023/10/31 02:38:00;;;;;;;22.45;17.08;;;11.90;95.80;;;;;;5112981;28;20360;-46
2023/10/31 02:40:26;;;;;;;19.92;17.13;;;11.90;95.90;;;;;;5114401;28;20058;-49
2023/10/31 02:42:54;;;;;;;20.10;16.85;;;11.90;95.90;;;;;;5113343;28;20055;-49
2023/10/31 02:45:21;;;;;;;21.83;16.45;;;11.90;95.90;;;;;;5109367;28;20034;-48
2023/10/31 02:47:49;;;;;;;22.17;17.17;;;11.90;95.90;;;;;;5115083;28;20368;-49
2023/10/31 02:50:17;;;;;;;19.67;16.67;;;11.90;95.90;;;;;;5095019;28;20055;-48
2023/10/31 02:52:43;;;;;;;19.20;17.00;;;11.90;95.90;;;;;;5114301;28;20493;-50
2023/10/31 02:55:11;;;;;;;20.42;16.95;;;11.90;95.90;;;;;;5113817;28;20062;-47
2023/10/31 02:57:39;;;;;;;19.65;16.92;;;12.00;95.90;;;;;;5096609;28;20377;-47
2023/10/31 03:00:11;;;;;;;18.23;14.93;;;11.90;95.90;;;;;;5105379;28;20116;-46
2023/10/31 03:02:41;;;;;;;20.10;15.75;;;12.00;96.00;;;;;;5113769;28;20035;-49
2023/10/31 03:05:08;;;;;;;23.45;16.88;;;12.00;95.90;;;;;;5113553;28;20529;-49
2023/10/31 03:07:36;;;;;;;22.88;17.23;;;11.90;95.90;;;;;;5098236;28;20036;-51
2023/10/31 03:10:05;;;;;;;19.73;16.05;;;11.90;95.90;;;;;;5104378;28;20100;-53
2023/10/31 03:12:32;;;;;;;20.70;15.25;;;11.90;95.90;;;;;;5107998;28;20027;-51
2023/10/31 03:14:57;;;;;;;20.98;15.82;;;11.90;95.90;;;;;;5092587;28;20057;-49
2023/10/31 03:17:25;;;;;;;18.83;15.45;;;11.90;95.90;;;;;;5076849;28;20458;-49
2023/10/31 03:19:52;;;;;;;23.58;17.25;;;11.90;95.90;;;;;;5113550;28;20059;-50
2023/10/31 03:22:20;;;;;;;20.35;15.02;;;11.90;95.90;;;;;;5113973;28;20496;-51
2023/10/31 03:24:48;;;;;;;20.75;15.57;;;11.90;96.00;;;;;;5092372;28;20094;-48
2023/10/31 03:27:13;;;;;;;20.60;14.13;;;11.90;95.90;;;;;;5100994;28;20024;-53
2023/10/31 03:29:41;;;;;;;21.98;16.25;;;11.90;96.00;;;;;;5098171;28;20523;-55
2023/10/31 03:32:09;;;;;;;20.38;15.45;;;11.90;95.90;;;;;;5108923;28;20042;-55
2023/10/31 03:34:37;;;;;;;21.30;17.23;;;11.90;95.90;;;;;;5108196;28;20069;-54
2023/10/31 03:37:04;;;;;;;21.63;15.95;;;11.90;95.90;;;;;;5109736;28;20039;-52
2023/10/31 03:39:31;;;;;;;19.35;15.02;;;11.90;96.00;;;;;;5113750;28;20110;-54
2023/10/31 03:41:58;;;;;;;20.65;14.93;;;11.90;96.00;;;;;;5113159;28;20549;-53
2023/10/31 03:44:27;;;;;;;18.30;14.30;;;11.90;96.00;;;;;;5110599;28;20024;-55
2023/10/31 03:46:55;;;;;;;24.45;15.75;;;11.90;96.00;;;;;;5107275;28;20031;-50
2023/10/31 03:49:21;;;;;;;21.63;13.55;;;11.90;96.00;;;;;;5113170;28;20469;-51
2023/10/31 03:51:48;;;;;;;17.85;13.20;;;11.90;96.00;;;;;;5108959;28;20031;-49
2023/10/31 03:54:21;;;;;;;20.27;13.80;;;11.90;96.00;;;;;;5107098;28;20030;-49
2023/10/31 03:56:48;;;;;;;17.92;12.65;;;11.90;96.00;;;;;;5113143;28;20484;-54
2023/10/31 03:59:15;;;;;;;19.60;13.13;;;11.90;96.00;;;;;;5111863;28;20119;-53
2023/10/31 04:01:42;;;;;;;16.60;11.98;;;11.80;96.00;;;;;;5105262;28;20405;-52
2023/10/31 04:04:10;;;;;;;21.02;13.55;;;11.80;96.00;;;;;;5084359;28;20119;-54
2023/10/31 04:06:40;;;;;;;19.05;13.27;;;11.90;96.00;;;;;;5109791;28;20452;-52
2023/10/31 04:09:08;;;;;;;19.08;13.57;;;11.80;96.00;;;;;;5108572;28;20384;-52
2023/10/31 04:11:36;;;;;;;20.17;14.10;;;11.80;96.00;;;;;;5107732;28;20481;-53
2023/10/31 04:14:03;;;;;;;18.88;13.63;;;11.80;96.00;;;;;;5114378;28;20645;-49
2023/10/31 04:16:30;;;;;;;18.13;12.85;;;11.80;96.00;;;;;;5114625;28;20027;-51
2023/10/31 04:18:57;;;;;;;21.90;13.63;;;11.80;96.00;;;;;;5117343;28;20353;-50
2023/10/31 04:21:24;;;;;;;23.20;14.23;;;11.80;96.10;;;;;;5096176;28;20038;-52
2023/10/31 04:23:55;;;;;;;21.60;12.65;;;11.70;96.10;;;;;;5098614;28;20055;-46
2023/10/31 04:26:22;;;;;;;24.92;14.85;;;11.70;96.10;;;;;;5097074;28;20044;-50
2023/10/31 04:28:51;;;;;;;25.35;15.90;;;11.70;96.10;;;;;;5107213;28;20011;-55
2023/10/31 04:31:19;;;;;;;26.83;15.32;;;11.80;96.10;;;;;;5098311;28;20505;-53
2023/10/31 04:33:46;;;;;;;23.60;14.85;;;11.80;96.20;;;;;;5111449;28;20471;-52
2023/10/31 04:36:15;;;;;;;23.92;15.80;;;11.70;96.10;;;;;;5116844;28;20035;-52
2023/10/31 04:38:45;;;;;;;23.98;15.60;;;11.70;96.20;;;;;;5097086;28;20051;-55
2023/10/31 04:41:12;;;;;;;24.98;16.10;;;11.80;96.20;;;;;;5100394;28;20039;-55
2023/10/31 04:43:42;;;;;;;24.80;15.65;;;11.80;96.30;;;;;;5116557;28;20058;-55
2023/10/31 04:46:10;;;;;;;21.48;13.30;;;11.80;96.20;;;;;;5103872;28;20107;-56
2023/10/31 04:48:35;;;;;;;21.15;13.02;;;11.80;96.20;;;;;;5096753;28;20028;-53
2023/10/31 04:51:02;;;;;;;18.20;12.05;;;11.80;96.20;;;;;;5103960;28;20448;-53
2023/10/31 04:53:32;;;;;;;14.77;9.48;;;11.80;96.20;;;;;;5115367;28;20063;-51
2023/10/31 04:56:02;;;;;;;11.57;8.00;;;11.80;96.20;;;;;;5104391;28;20043;-56
2023/10/31 04:58:28;;;;;;;12.70;8.20;;;11.70;96.10;;;;;;5117044;28;20035;-56
2023/10/31 05:00:56;;;;;;;12.10;8.07;;;11.60;96.20;;;;;;5109561;28;20027;-51
2023/10/31 05:03:24;;;;;;;15.20;10.40;;;11.60;96.20;;;;;;5116623;28;20031;-54
2023/10/31 05:05:51;;;;;;;15.32;10.18;;;11.60;96.20;;;;;;5097457;28;20341;-54
2023/10/31 05:08:16;;;;;;;16.02;11.10;;;11.60;96.20;;;;;;5115966;28;20121;-53
2023/10/31 05:10:44;;;;;;;17.67;11.10;;;11.50;96.20;;;;;;5116344;28;20454;-54
2023/10/31 05:13:12;;;;;;;18.45;11.68;;;11.50;96.20;;;;;;5116232;28;20062;-53
2023/10/31 05:15:40;;;;;;;15.85;9.90;;;11.50;96.30;;;;;;5113541;28;20094;-53
2023/10/31 05:18:09;;;;;;;13.70;7.78;;;11.50;96.30;;;;;;5114119;28;20031;-55
2023/10/31 05:20:38;;;;;;;11.70;6.97;;;11.40;96.30;;;;;;5097705;28;20028;-56
2023/10/31 05:23:05;;;;;;;9.38;6.20;;;11.40;96.40;;;;;;5115568;28;20031;-55
2023/10/31 05:25:32;;;;;;;10.25;2.63;;;11.40;96.40;;;;;;5115895;28;20127;-53
2023/10/31 05:27:59;;;;;;;13.52;2.80;;;11.40;96.30;;;;;;5102545;28;20031;-55
2023/10/31 05:30:29;;;;;;;6.35;2.20;;;11.20;96.40;;;;;;5109635;28;20028;-53
2023/10/31 05:32:56;;;;;;;7.18;2.13;;;11.20;96.30;;;;;;5104325;28;20024;-56
2023/10/31 05:35:22;;;;;;;9.07;2.42;;;11.20;96.40;;;;;;5105034;28;20032;-56
2023/10/31 05:37:49;;;;;;;8.50;1.70;;;11.10;96.30;;;;;;5106167;28;20076;-55
2023/10/31 05:40:16;;;;;;;4.63;1.60;;;11.10;96.40;;;;;;5103926;28;20028;-55
2023/10/31 05:42:43;;;;;;;5.53;1.20;;;11.10;96.50;;;;;;5104546;28;20436;-56
2023/10/31 05:45:10;;;;;;;8.57;1.65;;;11.10;96.50;;;;;;5104338;28;20035;-54
2023/10/31 05:47:35;;;;;;;6.00;1.75;;;11.10;96.50;;;;;;5105786;28;20077;-54
2023/10/31 05:50:03;;;;;;;6.40;1.85;;;11.10;96.50;;;;;;5105846;28;20027;-54
2023/10/31 05:52:30;;;;;;;8.40;1.75;;;11.00;96.50;;;;;;5104102;28;20019;-52
2023/10/31 05:54:57;;;;;;;8.35;2.22;;;11.00;96.50;;;;;;5106279;28;20040;-53
2023/10/31 05:57:24;;;;;;;7.10;2.20;;;10.90;96.50;;;;;;5077586;28;20036;-48
2023/10/31 05:59:52;;;;;;;11.60;2.13;;;10.90;96.50;;;;;;5103227;28;20074;-50
2023/10/31 06:02:21;;;;;;;7.32;1.67;;;10.90;96.50;;;;;;5106683;28;20027;-49
2023/10/31 06:04:48;;;;;;;11.40;2.38;;;10.90;96.50;;;;;;5108810;28;20027;-49
2023/10/31 06:07:16;;;;;;;9.18;2.00;;;10.90;96.60;;;;;;5107838;28;20080;-51
2023/10/31 06:09:44;;;;;;;8.40;1.85;;;10.80;96.50;;;;;;5097796;28;20030;-50
2023/10/31 06:12:13;;;;;;;5.00;1.85;;;10.80;96.50;;;;;;5103600;28;20046;-49
2023/10/31 06:14:41;;;;;;;11.13;2.55;;;10.80;96.60;;;;;;5106589;28;20027;-50
2023/10/31 06:17:08;;;;;;;7.47;2.65;;;10.70;96.60;;;;;;5097242;28;20037;-53
2023/10/31 06:19:36;;;;;;;8.65;2.38;;;10.70;96.60;;;;;;5088276;28;20016;-48
2023/10/31 06:22:04;;;;;;;7.90;1.80;;;10.70;96.70;;;;;;5107868;28;20035;-47
2023/10/31 06:24:31;;;;;;;11.13;2.17;;;10.70;96.60;;;;;;5106092;28;20048;-48
2023/10/31 06:26:58;;;;;;;3.90;2.08;;;10.70;96.60;;;;;;5104770;28;20093;-48
2023/10/31 06:29:27;;;;;;;6.30;1.80;;;10.60;96.60;;;;;;5113652;28;20030;-50
2023/10/31 06:31:55;;;;;;;5.72;1.52;;;10.60;96.60;;;;;;5109757;28;20024;-48
2023/10/31 06:34:21;;;;;;;9.68;1.70;;;10.60;96.60;;;;;;5114197;28;20407;-49
2023/10/31 06:36:52;;;;;;;12.50;2.60;;;10.60;96.60;;;;;;5107201;28;20043;-48
2023/10/31 06:39:18;;;;;;;8.52;1.65;;;10.60;96.60;;;;;;5092660;28;20043;-51
2023/10/31 06:41:45;;;;;;;6.97;1.58;;;10.60;96.60;;;;;;5103664;28;20020;-49
2023/10/31 06:44:12;;;;;;;13.65;3.78;;;10.60;96.60;;;;;;5103700;28;20038;-52
2023/10/31 06:46:40;;;;;;;9.00;2.25;;;10.60;96.60;;;;;;5107215;28;20032;-51
2023/10/31 06:49:07;;;;;;;9.38;2.30;;;10.50;96.70;;;;;;5111002;28;20019;-49
2023/10/31 06:51:34;;;;;;;9.38;2.38;;;10.50;96.70;;;;;;5105471;28;20019;-49
2023/10/31 06:54:02;;;;;;;10.20;2.17;;;10.60;96.80;;;;;;5096814;28;20016;-50
2023/10/31 06:56:31;;;;;;;8.00;2.17;;;10.60;96.80;;;;;;5107375;28;20376;-50
2023/10/31 06:59:02;;;;;;;12.38;2.75;;;10.60;96.70;;;;;;5106991;28;20024;-48
2023/10/31 07:01:31;;;;;;;13.63;3.35;;;10.60;96.80;;;;;;5102990;28;20035;-51
2023/10/31 07:03:58;;;;;;;6.78;2.08;;;10.60;96.80;;;;;;5103454;28;20036;-49
2023/10/31 07:06:23;;;;;;;8.55;2.10;;;10.60;96.80;;;;;;5104064;28;20468;-50
2023/10/31 07:08:52;;;;;;;9.18;1.75;;;10.60;96.80;;;;;;5105843;28;20028;-48
2023/10/31 07:11:19;;;;;;;6.53;1.33;;;10.60;96.80;;;;;;5085607;28;20065;-51
2023/10/31 07:13:47;;;;;;;3.20;1.25;;;10.60;96.80;;;;;;5110771;28;20697;-51
2023/10/31 07:16:15;;;;;;;4.28;1.10;;;10.60;96.90;;;;;;5100026;28;20102;-49
2023/10/31 07:18:42;;;;;;;7.43;1.00;;;10.60;96.70;;;;;;5083970;28;20032;-52
2023/10/31 07:21:09;;;;;;;4.05;0.82;;;10.60;96.70;;;;;;5112404;27;20063;-50
2023/10/31 07:23:38;;;;;;;4.35;1.15;;;10.50;96.70;;;;;;5094935;28;20046;-48
2023/10/31 07:26:06;;;;;;;6.95;1.42;;;10.50;96.70;;;;;;5112186;28;20048;-48
2023/10/31 07:28:34;;;;;;;5.78;0.90;;;10.40;96.60;;;;;;5112194;28;20031;-49
2023/10/31 07:31:00;;;;;;;2.28;0.70;;;10.40;96.60;;;;;;5091925;28;21292;-51
2023/10/31 07:33:26;;;;;;;3.53;0.90;;;10.40;96.70;;;;;;5088560;28;20381;-50
2023/10/31 07:35:56;;;;;;;5.18;1.10;;;10.40;96.60;;;;;;5111823;28;20056;-47
2023/10/31 07:38:21;;;;;;;5.93;1.75;;;10.40;96.70;;;;;;5058815;28;20023;-48
2023/10/31 07:40:48;;;;;;;7.55;0.80;;;10.40;96.60;;;;;;5106936;28;20356;-48
2023/10/31 07:43:15;;;;;;;3.83;0.68;;;10.40;96.60;;;;;;5101344;28;20028;-50
2023/10/31 07:45:41;;;;;;;3.38;0.88;;;10.40;96.70;;;;;;5105471;28;20115;-50
2023/10/31 07:48:09;;;;;;;4.82;1.40;;;10.40;96.70;;;;;;5102973;28;20065;-50
2023/10/31 07:50:37;;;;;;;5.18;1.98;;;10.40;96.60;;;;;;5096227;28;20035;-48
2023/10/31 07:53:05;;;;;;;2.30;0.80;;;10.40;96.70;;;;;;5098940;28;20019;-49
2023/10/31 07:55:32;;;;;;;2.85;1.10;;;10.40;96.60;;;;;;5097670;28;20093;-48
2023/10/31 07:57:59;;;;;;;6.72;2.53;;;10.40;96.60;;;;;;5101805;28;20034;-48
2023/10/31 08:00:26;;;;;;;5.35;1.17;;;10.40;96.60;;;;;;5102614;28;20031;-52
2023/10/31 08:02:56;;;;;;;2.70;1.13;;;10.40;96.50;;;;;;5094771;28;20031;-50
2023/10/31 08:05:23;;;;;;;4.88;1.23;;;10.40;96.60;;;;;;5102869;28;20563;-50
2023/10/31 08:07:50;;;;;;;3.88;2.08;;;10.40;96.60;;;;;;5094734;28;20021;-50
2023/10/31 08:10:18;;;;;;;3.85;1.50;;;10.40;96.60;;;;;;5107572;28;20030;-48
2023/10/31 08:12:46;;;;;;;2.92;1.10;;;10.40;96.60;;;;;;5106915;28;20019;-50
2023/10/31 08:15:15;;;;;;;4.35;1.40;;;10.40;96.60;;;;;;5087508;28;20376;-52
2023/10/31 08:17:42;;;;;;;3.30;1.00;;;10.40;96.50;;;;;;5082245;28;20465;-55
2023/10/31 08:20:09;;;;;;;4.35;1.17;;;10.40;96.60;;;;;;5098604;28;20032;-48
2023/10/31 08:22:39;;;;;;;3.85;0.88;;;10.40;96.60;;;;;;5104718;28;20051;-49
2023/10/31 08:25:08;;;;;;;1.85;0.70;;;10.40;96.60;;;;;;5071732;28;20072;-51
2023/10/31 08:27:35;;;;;;;2.03;0.80;;;10.40;96.60;;;;;;5088679;28;20024;-49
2023/10/31 08:30:03;;;;;;;3.25;1.02;;;10.40;96.60;;;;;;5084605;28;20098;-49
2023/10/31 08:32:28;;;;;;;2.47;1.02;;;10.40;96.50;;;;;;5069797;28;20150;-50
2023/10/31 08:34:57;;;;;;;4.15;1.20;;;10.50;96.60;;;;;;5067647;28;20024;-48
2023/10/31 08:37:25;;;;;;;2.05;1.20;;;10.40;96.60;;;;;;5083712;28;20020;-49
2023/10/31 08:39:52;;;;;;;2.90;1.10;;;10.50;96.70;;;;;;5063682;28;20031;-47
2023/10/31 08:42:20;;;;;;;5.55;1.20;;;10.50;96.60;;;;;;5084861;28;20089;-52
2023/10/31 08:44:49;;;;;;;4.28;1.00;;;10.50;96.60;;;;;;5069248;28;20369;-51
2023/10/31 08:47:19;;;;;;;2.85;1.10;;;10.50;96.60;;;;;;5080984;28;20099;-50
2023/10/31 08:49:45;;;;;;;5.55;1.95;;;10.60;96.70;;;;;;5086544;28;20764;-53
2023/10/31 08:52:13;;;;;;;3.13;1.35;;;10.60;96.60;;;;;;5090415;28;20036;-49
2023/10/31 08:54:41;;;;;;;5.03;1.02;;;10.60;96.60;;;;;;5086597;28;20024;-51
2023/10/31 08:57:09;;;;;;;4.05;1.10;;;10.70;96.70;;;;;;5090490;28;20038;-49
2023/10/31 08:59:36;;;;;;;4.28;2.20;;;10.70;96.60;;;;;;5098012;28;20024;-47
2023/10/31 09:02:02;;;;;;;3.95;2.03;;;10.80;96.70;;;;;;5092464;28;20365;-49
2023/10/31 09:04:28;;;;;;;3.88;1.75;;;10.90;96.60;;;;;;5075188;28;20024;-53
2023/10/31 09:06:56;;;;;;;3.20;1.88;;;10.90;96.70;;;;;;5091405;28;20043;-52
2023/10/31 09:09:21;;;;;;;4.13;1.40;;;10.90;96.50;;;;;;5090684;28;20025;-51
2023/10/31 09:11:48;;;;;;;4.95;1.55;;;10.90;96.60;;;;;;5085661;28;20070;-48
2023/10/31 09:14:19;;;;;;;3.05;1.27;;;11.00;96.60;;;;;;5090295;28;20186;-48
2023/10/31 09:16:45;;;;;;;2.65;1.13;;;11.00;96.50;;;;;;5094847;28;20031;-48
2023/10/31 09:19:13;;;;;;;3.22;1.10;;;11.00;96.50;;;;;;5090571;28;20035;-47
2023/10/31 09:21:40;;;;;;;2.60;1.00;;;11.00;96.40;;;;;;5077503;28;20024;-47
2023/10/31 09:24:08;;;;;;;3.10;0.95;;;11.00;96.30;;;;;;5090699;28;20036;-48
2023/10/31 09:26:35;;;;;;;6.53;1.27;;;11.10;96.30;;;;;;5101493;28;20028;-47
2023/10/31 09:29:00;;;;;;;4.10;1.33;;;11.10;96.20;;;;;;5105154;28;20028;-48
2023/10/31 09:31:28;;;;;;;3.78;1.17;;;11.20;96.40;;;;;;5082378;28;20019;-51
2023/10/31 09:33:55;;;;;;;3.67;1.10;;;11.20;96.30;;;;;;5106319;28;20032;-48
2023/10/31 09:36:25;;;;;;;3.88;0.85;;;11.20;96.20;;;;;;5104694;28;20032;-51
2023/10/31 09:38:51;;;;;;;;;;;11.20;96.20;;;;;;5103908;28;20027;-49
2023/10/31 09:41:21;;;;;;;4.40;0.75;;;11.20;96.00;;;;;;5104712;28;19923;-46
2023/10/31 09:43:50;;;;;;;4.30;1.42;;;11.20;96.10;;;;;;5097699;28;20035;-48
2023/10/31 09:46:17;;;;;;;2.78;0.75;;;11.30;96.20;;;;;;5121540;27;20040;-48
2023/10/31 09:48:43;;;;;;;6.38;2.08;;;11.40;96.10;;;;;;5101727;28;20039;-46
2023/10/31 09:51:11;;;;;;;3.72;0.98;;;11.40;96.00;;;;;;5087056;27;20036;-48
2023/10/31 09:53:44;;;;;;;3.50;0.77;;;11.50;96.10;;;;;;5114607;28;20011;-47
2023/10/31 09:56:10;;;;;;;2.45;0.80;;;11.50;96.20;;;;;;5115496;27;20750;-48
2023/10/31 09:58:43;;;;;;;3.72;0.90;;;11.50;95.90;;;;;;5109524;28;20120;-48
2023/10/31 10:01:11;;;;;;;1.58;0.77;;;11.60;95.90;;;;;;5079704;28;20099;-54
2023/10/31 10:03:38;;;;;;;1.05;0.47;;;11.60;95.80;;;;;;5106388;28;20106;-51
2023/10/31 10:06:04;;;;;;;3.08;0.77;;;11.50;95.80;;;;;;5106388;28;20027;-48
2023/10/31 10:08:36;;;;;;;3.15;1.25;;;11.60;95.90;;;;;;5108410;28;20029;-49
2023/10/31 10:11:02;;;;;;;3.30;0.95;;;11.40;95.60;;;;;;5090803;27;20059;-49
2023/10/31 10:13:31;;;;;;;2.72;1.35;;;11.40;95.70;;;;;;5117457;27;20076;-49
2023/10/31 10:15:59;;;;;;;2.53;1.17;;;11.50;95.70;;;;;;5110239;27;20036;-53
2023/10/31 10:18:35;;;;;;;3.42;1.90;;;11.40;95.80;;;;;;5110976;28;20057;-49
2023/10/31 10:21:03;;;;;;;3.30;1.80;;;11.40;95.70;;;;;;5075849;28;20418;-49
2023/10/31 10:23:30;;;;;;;4.65;1.23;;;11.40;95.90;;;;;;5095601;28;20035;-49
2023/10/31 10:26:03;;;;;;;5.18;0.73;;;11.40;95.80;;;;;;5093123;28;20070;-53
2023/10/31 10:28:29;;;;;;;6.15;1.10;;;11.20;95.40;;;;;;5104067;28;20027;-49
2023/10/31 10:30:58;;;;;;;5.65;1.08;;;11.00;95.30;;;;;;5110531;28;20115;-49
2023/10/31 10:33:28;;;;;;;6.40;1.58;;;10.90;95.30;;;;;;5096304;28;20028;-51
2023/10/31 10:35:58;;;;;;;8.25;1.23;;;10.80;95.20;;;;;;5110165;27;20020;-49
2023/10/31 10:38:32;;;;;;;5.43;0.77;;;10.80;95.20;;;;;;5110937;27;20023;-47
2023/10/31 10:41:01;;;;;;;5.28;0.77;;;10.80;95.20;;;;;;5099773;28;20028;-49
2023/10/31 10:43:40;;;;;;;7.88;0.85;;;10.70;94.90;;;;;;5091666;28;20031;-48
2023/10/31 10:46:12;;;;;;;3.67;0.70;;;10.60;94.80;;;;;;5095350;28;20039;-47
2023/10/31 10:48:46;;;;;;;7.82;1.40;;;10.70;94.80;;;;;;5092516;27;20106;-50
2023/10/31 10:52:07;;;;;;;4.70;0.80;;;10.60;94.70;;;;;;5106634;27;20676;-50
2023/10/31 10:54:53;;;;;;;7.28;1.67;;;10.60;94.40;;;;;;5050577;28;20115;-47
2023/10/31 10:57:42;;;;;;;5.32;1.02;;;10.50;94.20;;;;;;5090773;28;20096;-46
2023/10/31 11:00:13;;;;;;;3.78;0.50;;;10.40;94.10;;;;;;5108063;27;20115;-48
2023/10/31 11:02:45;;;;;;;3.05;0.60;;;10.40;94.20;;;;;;5103721;28;20512;-49
2023/10/31 11:05:15;;;;;;;5.80;1.27;;;10.40;94.20;;;;;;5103523;28;20119;-47
2023/10/31 11:07:43;;;;;;;3.70;0.60;;;10.40;94.20;;;;;;5118793;27;20027;-46
2023/10/31 11:10:09;;;;;;;5.70;0.73;;;10.40;94.40;;;;;;5108342;27;20093;-49
2023/10/31 11:12:46;;;;;;;2.15;0.50;;;10.40;94.30;;;;;;5116850;27;20024;-45
2023/10/31 11:15:18;;;;;;;3.55;0.70;;;10.30;94.30;;;;;;5121475;27;20032;-48
2023/10/31 11:17:48;;;;;;;3.03;0.60;;;10.30;94.30;;;;;;5125928;27;20023;-46
2023/10/31 11:20:15;;;;;;;;;;;10.30;94.20;;;;;;5105056;28;20088;-46
2023/10/31 11:22:45;;;;;;;6.80;1.13;;;10.20;94.20;;;;;;5113284;27;20010;-45
2023/10/31 11:25:16;;;;;;;3.80;1.25;;;10.30;94.30;;;;;;5089911;28;20075;-47
2023/10/31 11:27:43;;;;;;;4.45;0.50;;;10.30;94.30;;;;;;5102127;28;20032;-48
2023/10/31 11:30:27;;;;;;;5.25;0.90;;;10.30;94.30;;;;;;5088353;28;20465;-45
2023/10/31 11:32:53;;;;;;;2.85;0.45;;;10.10;94.00;;;;;;5096755;28;20020;-46
2023/10/31 11:35:21;;;;;;;3.67;0.55;;;10.00;93.90;;;;;;5087589;28;20107;-48
2023/10/31 11:38:11;;;;;;;4.10;0.77;;;9.90;94.00;;;;;;5068080;28;20058;-49
2023/10/31 11:41:00;;;;;;;5.68;0.63;;;9.90;94.00;;;;;;5090550;28;20059;-45
2023/10/31 11:43:41;;;;;;;1.38;0.52;;;9.90;93.90;;;;;;5089453;28;20095;-51
2023/10/31 11:46:20;;;;;;;6.70;0.85;;;9.80;93.90;;;;;;5065697;28;20039;-51
2023/10/31 11:48:53;;;;;;;3.72;0.55;;;9.80;94.10;;;;;;5095359;28;20058;-46
2023/10/31 11:51:19;;;;;;;1.88;0.60;;;9.80;94.30;;;;;;5092870;28;20032;-48
2023/10/31 11:53:49;;;;;;;2.38;0.77;;;9.90;94.10;;;;;;5084537;28;20046;-49
2023/10/31 11:56:17;;;;;;;3.72;0.63;;;9.90;93.90;;;;;;5092322;28;20027;-49
2023/10/31 11:58:54;;;;;;;7.97;1.10;;;9.70;93.50;;;;;;5077888;28;20036;-53
2023/10/31 12:01:21;;;;;;;8.20;1.20;;;9.70;93.60;;;;;;5100006;28;20035;-49
2023/10/31 12:03:48;;;;;;;5.22;1.00;;;9.50;93.30;;;;;;5087980;28;20040;-52
2023/10/31 12:06:17;;;;;;;3.80;0.85;;;9.40;93.30;;;;;;5098614;28;20039;-50
2023/10/31 12:08:44;;;;;;;3.65;1.42;;;9.30;93.20;;;;;;5100970;28;20035;-50
2023/10/31 12:11:30;;;;;;;5.68;1.50;;;9.30;93.30;;;;;;5069267;28;20403;-50
2023/10/31 12:14:06;;;;;;;7.82;1.00;;;9.20;93.20;;;;;;5108162;28;20024;-51
2023/10/31 12:16:35;;;;;;;5.85;1.52;;;9.20;93.10;;;;;;5101303;28;20032;-47
2023/10/31 12:19:03;;;;;;;6.85;1.17;;;9.30;93.10;;;;;;5098026;28;20045;-49
2023/10/31 12:21:42;;;;;;;6.65;1.33;;;9.30;92.70;;;;;;5066037;28;20035;-48
2023/10/31 12:24:14;;;;;;;3.47;1.10;;;9.30;92.40;;;;;;5108514;28;20062;-46
2023/10/31 12:26:41;;;;;;;4.63;1.23;;;9.40;92.20;;;;;;5113112;28;20764;-45
2023/10/31 12:29:15;;;;;;;6.28;1.40;;;9.50;92.30;;;;;;5112860;28;20067;-47
2023/10/31 12:32:05;;;;;;;3.92;1.25;;;9.50;91.70;;;;;;5106717;28;20111;-45
2023/10/31 12:34:34;;;;;;;9.95;1.60;;;9.50;91.80;;;;;;5100578;28;20016;-47
2023/10/31 12:37:03;;;;;;;9.17;1.30;;;9.60;91.60;;;;;;5091462;28;20106;-48
2023/10/31 12:39:36;;;;;;;4.22;0.90;;;9.70;92.10;;;;;;5104994;28;20035;-46
2023/10/31 12:42:05;;;;;;;3.85;0.77;;;9.70;91.20;;;;;;5095543;28;20020;-47
2023/10/31 12:44:34;;;;;;;8.48;1.35;;;9.70;90.70;;;;;;5089533;28;20032;-45
2023/10/31 12:47:08;;;;;;;8.65;1.98;;;9.90;91.10;;;;;;5095115;28;20457;-49
2023/10/31 12:49:45;;;;;;;5.60;1.10;;;9.90;90.80;;;;;;5091117;28;20039;-50